createdAt,value
2018-07-20T00:00:42.621Z,45.40
2018-07-20T00:03:14.500Z,45.40
2018-07-20T00:05:47.261Z,45.70
2018-07-20T00:08:19.041Z,46.20
2018-07-20T00:10:51.380Z,46.20
2018-07-20T00:13:23.040Z,46.40
2018-07-20T00:15:55.742Z,46.30
2018-07-20T00:18:26.661Z,46.30
2018-07-20T00:20:59.220Z,46.60
2018-07-20T00:23:31.561Z,46.90
2018-07-20T00:26:03.761Z,46.70
2018-07-20T00:28:35.841Z,46.70
2018-07-20T00:31:06.160Z,46.90
2018-07-20T00:33:37.502Z,47.10
2018-07-20T00:36:10.043Z,47.40
2018-07-20T00:38:42.281Z,47.70
2018-07-20T00:41:14.435Z,47.80
2018-07-20T00:43:46.020Z,48.00
2018-07-20T00:46:17.623Z,48.20
2018-07-20T00:48:49.641Z,48.50
2018-07-20T00:51:21.801Z,48.80
2018-07-20T00:53:53.761Z,49.10
2018-07-20T00:56:25.923Z,49.00
2018-07-20T00:58:58.121Z,49.00
2018-07-20T01:01:29.860Z,49.10
2018-07-20T01:04:02.081Z,49.10
2018-07-20T01:06:34.541Z,49.30
2018-07-20T01:09:07.740Z,49.30
2018-07-20T01:11:40.702Z,49.50
2018-07-20T01:14:13.061Z,49.60
2018-07-20T01:16:44.881Z,50.20
2018-07-20T01:19:17.121Z,49.70
2018-07-20T01:21:49.100Z,49.90
2018-07-20T01:24:21.280Z,49.80
2018-07-20T01:26:52.642Z,49.70
2018-07-20T01:29:24.980Z,49.80
2018-07-20T01:31:56.840Z,49.50
2018-07-20T01:34:28.840Z,49.70
2018-07-20T01:37:00.860Z,49.70
2018-07-20T01:39:32.641Z,50.20
2018-07-20T01:42:05.221Z,50.20
2018-07-20T01:44:36.500Z,50.40
2018-07-20T01:47:08.060Z,50.60
2018-07-20T01:49:40.481Z,50.80
2018-07-20T01:52:12.280Z,51.10
2018-07-20T01:54:43.262Z,51.40
2018-07-20T01:57:15.280Z,51.50
2018-07-20T01:59:47.480Z,51.50
2018-07-20T02:02:19.960Z,51.60
2018-07-20T02:04:51.681Z,51.80
2018-07-20T02:07:24.181Z,51.90
2018-07-20T02:09:55.961Z,52.20
2018-07-20T02:12:28.381Z,52.30
2018-07-20T02:15:00.782Z,52.40
2018-07-20T02:17:32.000Z,52.60
2018-07-20T02:20:04.140Z,52.60
2018-07-20T02:22:36.000Z,52.60
2018-07-20T02:25:08.280Z,52.90
2018-07-20T02:27:40.340Z,52.90
2018-07-20T02:30:13.301Z,53.60
2018-07-20T02:32:45.780Z,52.80
2018-07-20T02:35:17.881Z,53.00
2018-07-20T02:37:49.941Z,53.00
2018-07-20T02:40:21.440Z,53.10
2018-07-20T02:42:53.560Z,53.30
2018-07-20T02:45:25.320Z,53.30
2018-07-20T02:47:56.845Z,53.40
2018-07-20T02:50:28.661Z,53.80
2018-07-20T02:53:00.641Z,52.90
2018-07-20T02:55:32.784Z,52.60
2018-07-20T02:58:04.681Z,52.80
2018-07-20T03:00:36.660Z,53.40
2018-07-20T03:03:08.320Z,53.20
2018-07-20T03:05:39.861Z,53.10
2018-07-20T03:08:11.644Z,53.40
2018-07-20T03:10:43.721Z,53.50
2018-07-20T03:13:16.061Z,53.60
2018-07-20T03:15:48.801Z,53.70
2018-07-20T03:18:20.680Z,53.40
2018-07-20T03:20:52.543Z,53.70
2018-07-20T03:23:23.744Z,53.80
2018-07-20T03:25:55.825Z,53.70
2018-07-20T03:28:27.280Z,53.70
2018-07-20T03:30:59.541Z,53.70
2018-07-20T03:33:31.468Z,53.70
2018-07-20T03:36:03.600Z,53.90
2018-07-20T03:38:35.620Z,54.00
2018-07-20T03:41:06.120Z,54.00
2018-07-20T03:43:37.301Z,54.00
2018-07-20T03:46:08.740Z,54.10
2018-07-20T03:48:40.320Z,54.50
2018-07-20T03:51:12.600Z,54.50
2018-07-20T03:53:44.242Z,54.50
2018-07-20T03:56:16.720Z,54.50
2018-07-20T03:58:47.901Z,54.70
2018-07-20T04:01:20.600Z,54.70
2018-07-20T04:03:51.980Z,54.50
2018-07-20T04:06:24.223Z,54.40
2018-07-20T04:08:55.861Z,54.60
2018-07-20T04:11:27.827Z,54.80
2018-07-20T04:13:59.160Z,54.90
2018-07-20T04:16:31.041Z,54.90
2018-07-20T04:19:02.700Z,55.00
2018-07-20T04:21:34.420Z,54.90
2018-07-20T04:24:06.240Z,54.80
2018-07-20T04:26:39.061Z,55.00
2018-07-20T04:29:10.740Z,55.10
2018-07-20T04:31:42.840Z,55.60
2018-07-20T04:36:45.920Z,55.80
2018-07-20T04:39:17.600Z,55.60
2018-07-20T04:41:49.560Z,55.60
2018-07-20T04:44:21.460Z,55.90
2018-07-20T04:46:53.701Z,56.20
2018-07-20T04:49:25.781Z,56.30
2018-07-20T04:51:57.920Z,56.20
2018-07-20T04:54:29.860Z,56.30
2018-07-20T04:57:01.801Z,56.20
2018-07-20T04:59:34.260Z,56.70
2018-07-20T05:02:05.624Z,56.00
2018-07-20T05:04:37.880Z,56.20
2018-07-20T05:07:10.483Z,56.40
2018-07-20T05:09:42.880Z,56.10
2018-07-20T05:12:14.900Z,56.10
2018-07-20T05:14:46.520Z,56.00
2018-07-20T05:17:19.080Z,55.90
2018-07-20T05:19:50.880Z,55.80
2018-07-20T05:22:22.340Z,57.50
2018-07-20T05:24:53.700Z,57.40
2018-07-20T05:27:25.500Z,57.00
2018-07-20T05:29:57.601Z,57.90
2018-07-20T05:32:30.147Z,57.90
2018-07-20T05:35:01.361Z,58.10
2018-07-20T05:37:33.181Z,57.80
2018-07-20T05:40:04.680Z,57.80
2018-07-20T05:42:36.764Z,57.50
2018-07-20T05:45:09.280Z,56.80
2018-07-20T05:47:41.687Z,57.30
2018-07-20T05:50:13.141Z,57.00
2018-07-20T05:52:44.961Z,56.30
2018-07-20T05:55:17.221Z,56.10
2018-07-20T05:57:49.461Z,55.80
2018-07-20T06:00:20.880Z,55.40
2018-07-20T06:02:53.603Z,54.30
2018-07-20T06:05:25.050Z,54.40
2018-07-20T06:07:57.200Z,53.70
2018-07-20T06:10:28.321Z,52.40
2018-07-20T06:12:59.880Z,51.90
2018-07-20T06:15:32.520Z,51.50
2018-07-20T06:18:04.460Z,50.30
2018-07-20T06:20:36.701Z,50.10
2018-07-20T06:23:09.080Z,50.10
2018-07-20T06:25:40.620Z,50.70
2018-07-20T06:28:12.961Z,50.70
2018-07-20T06:30:44.321Z,50.30
2018-07-20T06:33:16.841Z,50.00
2018-07-20T06:35:48.640Z,49.60
2018-07-20T06:38:20.320Z,49.60
2018-07-20T06:40:52.442Z,49.20
2018-07-20T06:43:24.600Z,49.00
2018-07-20T06:45:56.020Z,48.80
2018-07-20T06:48:28.280Z,48.60
2018-07-20T06:51:02.001Z,48.10
2018-07-20T06:53:33.381Z,47.90
2018-07-20T06:56:05.360Z,47.60
2018-07-20T06:58:36.701Z,47.60
2018-07-20T07:01:09.920Z,47.40
2018-07-20T07:03:41.462Z,46.70
2018-07-20T07:06:13.440Z,46.60
2018-07-20T07:08:46.780Z,49.40
2018-07-20T07:11:18.380Z,51.10
2018-07-20T07:13:50.900Z,50.70
2018-07-20T07:16:22.320Z,50.70
2018-07-20T07:18:54.119Z,49.50
2018-07-20T07:21:25.660Z,50.00
2018-07-20T07:23:57.269Z,50.40
2018-07-20T07:26:30.280Z,50.10
2018-07-20T07:29:02.798Z,50.00
2018-07-20T07:31:35.321Z,50.30
2018-07-20T07:34:08.180Z,53.40
2018-07-20T07:36:39.680Z,53.50
2018-07-20T07:39:13.480Z,54.70
2018-07-20T07:41:45.503Z,55.00
2018-07-20T07:44:17.440Z,54.70
2018-07-20T07:46:49.560Z,54.90
2018-07-20T07:49:21.211Z,53.80
2018-07-20T07:51:53.721Z,54.20
2018-07-20T07:54:24.996Z,54.10
2018-07-20T07:56:57.060Z,53.80
2018-07-20T07:59:28.800Z,54.00
2018-07-20T08:02:01.420Z,53.80
2018-07-20T08:04:33.138Z,54.20
2018-07-20T08:07:05.520Z,54.00
2018-07-20T08:09:37.728Z,54.20
2018-07-20T08:12:08.922Z,53.40
2018-07-20T08:14:40.124Z,53.60
2018-07-20T08:17:12.783Z,51.50
2018-07-20T08:19:44.767Z,52.70
2018-07-20T08:22:17.123Z,52.70
2018-07-20T08:24:49.763Z,53.10
2018-07-20T08:27:21.424Z,53.10
2018-07-20T08:29:52.963Z,53.30
2018-07-20T08:32:24.783Z,52.30
2018-07-20T08:34:57.004Z,52.40
2018-07-20T08:37:29.103Z,52.70
2018-07-20T08:40:00.730Z,53.30
2018-07-20T08:42:32.783Z,52.90
2018-07-20T08:45:04.765Z,53.40
2018-07-20T08:47:36.464Z,53.20
2018-07-20T08:50:08.204Z,53.00
2018-07-20T08:55:10.323Z,52.00
2018-07-20T08:57:42.566Z,52.10
2018-07-20T09:00:14.564Z,52.20
2018-07-20T09:02:46.863Z,52.30
2018-07-20T09:05:18.964Z,51.90
2018-07-20T09:07:51.588Z,52.10
2018-07-20T09:10:23.592Z,52.00
2018-07-20T09:12:55.558Z,52.00
2018-07-20T09:15:27.720Z,51.40
2018-07-20T09:17:59.822Z,51.50
2018-07-20T09:20:32.174Z,51.50
2018-07-20T09:23:04.538Z,51.20
2018-07-20T09:25:36.836Z,51.20
2018-07-20T09:28:09.387Z,51.30
2018-07-20T09:30:40.953Z,50.70
2018-07-20T09:33:11.929Z,50.70
2018-07-20T09:35:44.109Z,50.50
2018-07-20T09:38:15.230Z,49.90
2018-07-20T09:40:47.389Z,49.30
2018-07-20T09:43:19.309Z,48.10
2018-07-20T09:45:50.970Z,47.60
2018-07-20T09:48:22.786Z,47.50
2018-07-20T09:50:55.106Z,47.70
2018-07-20T09:53:26.747Z,46.00
2018-07-20T09:55:58.466Z,45.30
2018-07-20T09:58:30.820Z,44.30
2018-07-20T10:01:03.106Z,44.40
2018-07-20T10:03:34.786Z,43.30
2018-07-20T10:06:07.086Z,43.30
2018-07-20T10:08:38.926Z,44.20
2018-07-20T10:11:11.334Z,43.70
2018-07-20T10:13:43.402Z,43.40
2018-07-20T10:16:15.847Z,42.10
2018-07-20T10:18:47.966Z,41.40
2018-07-20T10:21:20.306Z,41.10
2018-07-20T10:23:52.466Z,40.70
2018-07-20T10:26:24.226Z,42.20
2018-07-20T10:28:55.426Z,42.90
2018-07-20T10:31:27.528Z,42.40
2018-07-20T10:34:00.467Z,43.40
2018-07-20T10:36:32.154Z,42.20
2018-07-20T10:39:04.794Z,41.40
2018-07-20T10:41:37.707Z,40.70
2018-07-20T10:46:40.547Z,41.30
2018-07-20T10:49:13.086Z,41.60
2018-07-20T10:51:44.866Z,41.90
2018-07-20T10:54:16.567Z,42.90
2018-07-20T10:56:48.546Z,42.40
2018-07-20T10:59:20.666Z,43.70
2018-07-20T11:01:52.506Z,41.50
2018-07-20T11:04:25.186Z,42.20
2018-07-20T11:06:56.987Z,41.90
2018-07-20T11:09:29.667Z,41.90
2018-07-20T11:14:33.386Z,41.70
2018-07-20T11:17:04.926Z,41.40
2018-07-20T11:19:36.965Z,42.20
2018-07-20T11:22:08.806Z,41.30
2018-07-20T11:24:39.987Z,41.30
2018-07-20T11:27:11.665Z,41.70
2018-07-20T11:29:44.147Z,42.20
2018-07-20T11:32:16.806Z,41.70
2018-07-20T11:34:48.757Z,42.80
2018-07-20T11:37:20.825Z,42.00
2018-07-20T11:39:52.446Z,40.60
2018-07-20T11:42:24.287Z,40.50
2018-07-20T11:44:56.066Z,40.60
2018-07-20T11:47:27.307Z,40.30
2018-07-20T11:49:59.346Z,40.30
2018-07-20T11:52:30.826Z,39.20
2018-07-20T11:55:02.570Z,39.90
2018-07-20T11:57:33.909Z,39.90
2018-07-20T12:00:05.908Z,40.30
2018-07-20T12:02:37.970Z,39.60
2018-07-20T12:05:10.029Z,39.20
2018-07-20T12:07:41.908Z,38.60
2018-07-20T12:10:14.868Z,38.70
2018-07-20T12:12:46.488Z,38.90
2018-07-20T12:15:18.549Z,38.30
2018-07-20T12:17:51.287Z,37.50
2018-07-20T12:20:23.169Z,37.00
2018-07-20T12:22:55.448Z,36.80
2018-07-20T12:27:59.428Z,35.70
2018-07-20T12:30:32.129Z,35.20
2018-07-20T12:33:04.167Z,35.40
2018-07-20T12:35:37.127Z,35.20
2018-07-20T12:38:09.448Z,34.80
2018-07-20T12:40:41.049Z,34.50
2018-07-20T12:43:13.093Z,35.40
2018-07-20T12:45:44.986Z,35.70
2018-07-20T12:48:17.485Z,35.00
2018-07-20T12:50:49.685Z,34.80
2018-07-20T12:53:21.738Z,34.70
2018-07-20T12:55:53.943Z,34.30
2018-07-20T12:58:25.794Z,34.40
2018-07-20T13:00:57.682Z,34.40
2018-07-20T13:03:29.403Z,33.70
2018-07-20T13:06:01.043Z,33.60
2018-07-20T13:08:33.081Z,32.70
2018-07-20T13:11:04.684Z,32.80
2018-07-20T13:16:07.842Z,33.50
2018-07-20T13:18:39.922Z,33.10
2018-07-20T13:21:11.562Z,33.20
2018-07-20T13:23:43.730Z,33.00
2018-07-20T13:26:15.103Z,32.90
2018-07-20T13:28:47.722Z,32.70
2018-07-20T13:31:19.643Z,33.20
2018-07-20T13:33:51.783Z,32.40
2018-07-20T13:36:24.022Z,32.30
2018-07-20T13:38:55.622Z,32.20
2018-07-20T13:41:27.882Z,32.10
2018-07-20T13:44:00.103Z,32.70
2018-07-20T13:46:32.043Z,32.60
2018-07-20T13:49:04.523Z,32.60
2018-07-20T13:51:36.201Z,32.70
2018-07-20T13:54:08.761Z,32.70
2018-07-20T13:56:40.061Z,32.70
2018-07-20T13:59:11.841Z,32.40
2018-07-20T14:01:43.664Z,32.80
2018-07-20T14:04:15.645Z,33.20
2018-07-20T14:06:47.423Z,32.80
2018-07-20T14:09:19.842Z,33.00
2018-07-20T14:11:52.025Z,33.00
2018-07-20T14:14:23.802Z,33.10
2018-07-20T14:16:56.663Z,33.10
2018-07-20T14:19:27.902Z,33.10
2018-07-20T14:22:00.027Z,33.10
2018-07-20T14:24:31.751Z,32.90
2018-07-20T14:27:03.042Z,33.20
2018-07-20T14:29:34.941Z,33.40
2018-07-20T14:32:07.522Z,33.20
2018-07-20T14:34:40.003Z,33.20
2018-07-20T14:37:11.662Z,33.10
2018-07-20T14:39:43.423Z,33.20
2018-07-20T14:42:15.362Z,33.20
2018-07-20T14:44:47.702Z,33.40
2018-07-20T14:47:19.622Z,33.30
2018-07-20T14:49:51.884Z,33.70
2018-07-20T14:52:23.196Z,33.90
2018-07-20T14:54:55.094Z,34.00
2018-07-20T14:57:26.803Z,33.80
2018-07-20T14:59:58.871Z,34.10
2018-07-20T15:02:30.189Z,34.20
2018-07-20T15:05:02.883Z,33.60
2018-07-20T15:07:35.764Z,34.30
2018-07-20T15:10:07.444Z,34.30
2018-07-20T15:12:39.503Z,34.50
2018-07-20T15:15:11.384Z,34.90
2018-07-20T15:17:43.503Z,34.90
2018-07-20T15:20:16.664Z,35.20
2018-07-20T15:22:48.146Z,35.50
2018-07-20T15:25:20.984Z,36.30
2018-07-20T15:39:34.811Z,37.20
2018-07-20T15:42:07.704Z,39.50
2018-07-20T15:44:40.182Z,38.70
2018-07-20T15:47:11.414Z,38.70
2018-07-20T15:49:43.783Z,38.10
2018-07-20T15:54:47.421Z,39.40
2018-07-20T15:57:19.821Z,40.30
2018-07-20T15:59:52.076Z,42.80
2018-07-20T16:02:24.941Z,41.90
2018-07-20T16:04:56.802Z,41.50
2018-07-20T16:07:29.122Z,41.50
2018-07-20T16:10:00.721Z,45.00
2018-07-20T16:12:32.841Z,43.40
2018-07-20T16:15:05.142Z,43.30
2018-07-20T16:17:36.982Z,44.20
2018-07-20T16:20:08.681Z,44.70
2018-07-20T16:22:40.410Z,44.10
2018-07-20T16:25:12.302Z,43.60
2018-07-20T16:27:44.102Z,43.10
2018-07-20T16:30:15.722Z,43.90
2018-07-20T16:32:47.462Z,45.10
2018-07-20T16:35:19.642Z,44.00
2018-07-20T16:37:52.022Z,44.00
2018-07-20T16:40:23.302Z,43.40
2018-07-20T16:42:56.242Z,43.20
2018-07-20T16:45:28.462Z,43.50
2018-07-20T16:48:00.563Z,44.00
2018-07-20T16:50:32.902Z,44.70
2018-07-20T16:53:05.303Z,45.40
2018-07-20T16:55:36.901Z,47.00
2018-07-20T16:58:08.940Z,48.40
2018-07-20T17:00:41.122Z,49.00
2018-07-20T17:03:13.302Z,50.50
2018-07-20T17:05:44.682Z,50.90
2018-07-20T17:08:16.742Z,50.00
2018-07-20T17:10:48.582Z,50.70
2018-07-20T17:13:20.942Z,49.60
2018-07-20T17:15:51.902Z,50.50
2018-07-20T17:18:23.762Z,49.90
2018-07-20T17:20:55.183Z,49.10
2018-07-20T17:23:27.383Z,49.20
2018-07-20T17:25:59.082Z,49.50
2018-07-20T17:28:31.864Z,49.70
2018-07-20T17:31:03.843Z,49.80
2018-07-20T17:33:35.809Z,50.00
2018-07-20T17:36:07.843Z,49.90
2018-07-20T17:38:39.642Z,49.80
2018-07-20T17:41:11.962Z,49.50
2018-07-20T17:43:43.623Z,49.30
2018-07-20T17:46:16.222Z,49.30
2018-07-20T17:48:47.483Z,49.00
2018-07-20T17:51:19.863Z,48.70
2018-07-20T17:53:51.862Z,48.60
2018-07-20T17:56:24.043Z,48.50
2018-07-20T17:58:55.802Z,49.40
2018-07-20T18:01:28.223Z,50.40
2018-07-20T18:03:59.842Z,51.70
2018-07-20T18:06:31.847Z,52.20
2018-07-20T18:09:03.751Z,53.80
2018-07-20T18:11:35.342Z,52.30
2018-07-20T18:14:07.202Z,52.90
2018-07-20T18:16:38.823Z,52.60
2018-07-20T18:19:10.885Z,53.60
2018-07-20T18:21:43.203Z,53.80
2018-07-20T18:24:15.582Z,54.30
2018-07-20T18:26:47.062Z,54.10
2018-07-20T18:29:18.724Z,54.50
2018-07-20T18:31:50.422Z,54.50
2018-07-20T18:34:22.142Z,55.20
2018-07-20T18:36:54.241Z,55.50
2018-07-20T18:39:27.043Z,55.50
2018-07-20T18:41:58.593Z,55.70
2018-07-20T18:44:31.022Z,56.00
2018-07-20T18:47:02.983Z,57.70
2018-07-20T18:49:35.902Z,57.70
2018-07-20T18:52:07.622Z,58.30
2018-07-20T18:54:39.304Z,59.40
2018-07-20T18:57:11.541Z,58.90
2018-07-20T18:59:43.535Z,57.90
2018-07-20T19:02:15.482Z,58.90
2018-07-20T19:04:47.461Z,59.60
2018-07-20T19:07:19.101Z,61.00
2018-07-20T19:09:50.563Z,59.60
2018-07-20T19:12:22.522Z,58.70
2018-07-20T19:14:54.562Z,59.50
2018-07-20T19:17:26.163Z,59.80
2018-07-20T19:19:57.921Z,59.10
2018-07-20T19:22:29.542Z,60.20
2018-07-20T19:25:01.021Z,60.30
2018-07-20T19:27:33.202Z,59.30
2018-07-20T19:30:05.122Z,58.70
2018-07-20T19:32:36.896Z,58.60
2018-07-20T19:35:08.661Z,58.50
2018-07-20T19:37:40.701Z,58.30
2018-07-20T19:40:12.502Z,58.30
2018-07-20T19:42:44.601Z,58.10
2018-07-20T19:45:16.481Z,57.70
2018-07-20T19:47:48.968Z,58.50
2018-07-20T19:50:20.442Z,57.70
2018-07-20T19:52:52.422Z,58.20
2018-07-20T19:55:24.201Z,58.40
2018-07-20T19:57:56.402Z,58.00
2018-07-20T20:00:28.961Z,57.00
2018-07-20T20:03:00.962Z,57.10
2018-07-20T20:05:33.602Z,57.10
2018-07-20T20:08:05.689Z,57.30
2018-07-20T20:10:37.142Z,57.30
2018-07-20T20:13:10.063Z,57.30
2018-07-20T20:15:41.161Z,57.20
2018-07-20T20:18:13.222Z,57.40
2018-07-20T20:20:44.962Z,57.60
2018-07-20T20:23:17.102Z,58.20
2018-07-20T20:25:48.950Z,58.50
2018-07-20T20:28:21.042Z,59.10
2018-07-20T20:30:54.062Z,59.80
2018-07-20T20:33:25.662Z,59.40
2018-07-20T20:35:57.190Z,59.70
2018-07-20T20:38:29.302Z,59.00
2018-07-20T20:41:01.062Z,58.80
2018-07-20T20:43:32.822Z,58.30
2018-07-20T20:46:05.724Z,58.10
2018-07-20T20:48:37.722Z,58.30
2018-07-20T20:51:09.662Z,58.20
2018-07-20T20:53:43.271Z,56.60
2018-07-20T20:56:14.962Z,56.50
2018-07-20T20:58:47.249Z,57.70
2018-07-20T21:01:19.582Z,59.20
2018-07-20T21:03:51.582Z,59.30
2018-07-20T21:06:23.742Z,58.90
2018-07-20T21:08:55.562Z,58.30
2018-07-20T21:11:27.205Z,57.50
2018-07-20T21:13:58.763Z,56.50
2018-07-20T21:16:31.322Z,56.60
2018-07-20T21:19:03.042Z,56.30
2018-07-20T21:21:34.662Z,56.10
2018-07-20T21:24:07.365Z,56.00
2018-07-20T21:26:40.161Z,56.00
2018-07-20T21:29:12.163Z,56.00
2018-07-20T21:31:43.522Z,55.70
2018-07-20T21:34:15.541Z,55.70
2018-07-20T21:36:47.502Z,55.80
2018-07-20T21:39:19.781Z,55.90
2018-07-20T21:41:51.983Z,56.10
2018-07-20T21:44:23.622Z,56.30
2018-07-20T21:46:55.783Z,56.50
2018-07-20T21:51:59.383Z,56.50
2018-07-20T21:54:30.883Z,56.40
2018-07-20T21:57:02.744Z,55.90
2018-07-20T21:59:34.662Z,55.50
2018-07-20T22:02:06.582Z,55.10
2018-07-20T22:04:38.243Z,55.20
2018-07-20T22:07:10.162Z,55.30
2018-07-20T22:09:41.742Z,55.50
2018-07-20T22:12:14.242Z,55.50
2018-07-20T22:14:46.602Z,55.30
2018-07-20T22:17:18.683Z,55.30
2018-07-20T22:19:50.822Z,55.30
2018-07-20T22:22:22.623Z,55.30
2018-07-20T22:24:54.242Z,55.40
2018-07-20T22:27:25.922Z,55.20
2018-07-20T22:29:58.943Z,55.20
2018-07-20T22:32:31.665Z,55.30
2018-07-20T22:35:03.322Z,55.40
2018-07-20T22:37:34.762Z,55.40
2018-07-20T22:40:07.042Z,55.30
2018-07-20T22:42:39.162Z,55.40
2018-07-20T22:45:10.902Z,55.40
2018-07-20T22:47:42.204Z,54.80
2018-07-20T22:50:13.902Z,55.00
2018-07-20T22:52:46.386Z,55.10
2018-07-20T22:55:18.103Z,55.00
2018-07-20T22:57:49.842Z,55.30
2018-07-20T23:00:21.262Z,55.90
2018-07-20T23:02:53.371Z,57.00
2018-07-20T23:05:25.062Z,56.40
2018-07-20T23:07:57.242Z,57.30
2018-07-20T23:10:29.322Z,58.70
2018-07-20T23:13:01.362Z,57.40
2018-07-20T23:15:33.102Z,57.40
2018-07-20T23:18:15.322Z,58.60
2018-07-20T23:20:47.151Z,58.20
2018-07-20T23:23:19.242Z,59.00
2018-07-20T23:25:50.841Z,58.00
2018-07-20T23:28:23.562Z,58.20
2018-07-20T23:30:55.042Z,57.50
2018-07-20T23:33:26.944Z,58.10
2018-07-20T23:35:58.462Z,58.10
2018-07-20T23:38:30.421Z,57.90
2018-07-20T23:41:01.702Z,59.40
2018-07-20T23:43:33.481Z,58.40
2018-07-20T23:46:05.061Z,58.60
2018-07-20T23:48:37.222Z,60.20
2018-07-20T23:51:08.642Z,59.90
2018-07-20T23:53:40.641Z,60.10
2018-07-20T23:56:11.841Z,59.80
2018-07-20T23:58:44.422Z,61.00
